Etusivu
METAR-TAF:

METAR-TAF

Lentoasemat :

Orange_County_Airport

Orange, Texas, Yhdysvallat

Leveyspiiri: 30-04-09N, Pituuspiiri: 093-48-13W, korkeus merenpinnasta: 4 m

Tämänhetkinen sää

Tämä raportti tehtiin 19 minuuttia sitten, kello 18.55 UTC
Tuuli 14 kn etelästä/lounaasta puuskistuen 17 kn:hen
Lämpötila 32°C
Kosteus 63%
Ilmanpaine 1010 hPa
Näkyvyys: 11.3 km
Hajanaisia pilviä 2400 ft:n korkeudessa

METAR: KORG 261855Z AUTO 21014G17KT 7SM SCT024 32/24 A2982 RMK AO2 T03190242

Aika: 14:14 (19:14 UTC)


TAF: puuttuu

Säähavainnot ja -ennusteet yli 4000 lentoasemalta (METAR- ja TAF-raportit).

Käytössä olevat sääasemat on merkitty karttaan keltaisilla ja punaisilla pisteillä.

Aseta hiiri pisteen päälle nähdäksesi sääaseman nimen.

Klikkaa sitten nähdäksesi säähavainnot ja -ennusteet.

Kartan vaihtaminen: klikkaa mustalla rastilla varustettuja vihreitä pisteitä, niin voit zoomata sisään; viivalla varustettua vihreää pistettä, niin voit zoomata ulos tai vihreitä nuolia, niin pääset viereisille kartoille.


METAR-TAF: